Bryon, Georgia
Current Conditions -  °F | °C
As of 4:53 PM on Friday 31 Oct 2014 (Local Time) from KMCN Reporting Station
Overcast Overcast  
Wind Chill: 65°   Ceiling: 9000
Heat Index: 65°   Visibility: 10mi
Dew Point: 41°   Wind: 15mph
Humidity: 42%   Direction: 310°NW
Pressure: 29.85"   Gusts: 20mph
Location:  32.6425°N, 83.775°W
Report Text: KMCN 312053Z AUTO 31013G17KT 10SM OVC090 18/05 A2985 RMK AO2 SLP105 T01830050 55005 TSNO
Loading
Personal Weather Stations






























Interactive Weather Map
Tropical Storm Tracking
New forecast layout! Learn more

10-Day Weather Forecast

Advertisements
Track Severe Weather on mobile